sensor_id;sensor_type;location;lat;lon;timestamp;temperature;humidity
18950;DHT22;9608;49.288;8.130;2024-01-15T00:00:52;-1.60;99.90
18950;DHT22;9608;49.288;8.130;2024-01-15T00:03:18;-1.50;99.90
18950;DHT22;9608;49.288;8.130;2024-01-15T00:05:45;-1.40;99.90
18950;DHT22;9608;49.288;8.130;2024-01-15T00:08:12;-1.30;99.90
18950;DHT22;9608;49.288;8.130;2024-01-15T00:10:38;-1.20;99.90
18950;DHT22;9608;49.288;8.130;2024-01-15T00:13:07;-1.20;99.90
18950;DHT22;9608;49.288;8.130;2024-01-15T00:15:34;-1.20;99.90
18950;DHT22;9608;49.288;8.130;2024-01-15T00:18:00;-1.20;99.90
18950;DHT22;9608;49.288;8.130;2024-01-15T00:20:27;-1.10;99.90
18950;DHT22;9608;49.288;8.130;2024-01-15T00:22:54;-1.20;99.90
18950;DHT22;9608;49.288;8.130;2024-01-15T00:25:20;-1.20;99.90
18950;DHT22;9608;49.288;8.130;2024-01-15T00:27:47;-1.20;99.90
18950;DHT22;9608;49.288;8.130;2024-01-15T00:30:15;-1.10;99.90
18950;DHT22;9608;49.288;8.130;2024-01-15T00:32:42;-1.10;99.90
18950;DHT22;9608;49.288;8.130;2024-01-15T00:35:09;-1.20;99.90
18950;DHT22;9608;49.288;8.130;2024-01-15T00:37:36;-1.10;99.90
18950;DHT22;9608;49.288;8.130;2024-01-15T00:40:03;-1.00;99.90
18950;DHT22;9608;49.288;8.130;2024-01-15T00:42:30;-0.90;99.90
18950;DHT22;9608;49.288;8.130;2024-01-15T00:44:57;-0.90;99.90
18950;DHT22;9608;49.288;8.130;2024-01-15T00:47:25;-0.90;99.90
18950;DHT22;9608;49.288;8.130;2024-01-15T00:49:52;-0.90;99.90
18950;DHT22;9608;49.288;8.130;2024-01-15T00:52:18;-0.80;99.90
18950;DHT22;9608;49.288;8.130;2024-01-15T00:54:45;-0.80;99.90
18950;DHT22;9608;49.288;8.130;2024-01-15T00:57:11;-0.70;99.90
18950;DHT22;9608;49.288;8.130;2024-01-15T00:59:38;-0.70;99.90
18950;DHT22;9608;49.288;8.130;2024-01-15T01:02:06;-0.60;99.90
18950;DHT22;9608;49.288;8.130;2024-01-15T01:04:34;-0.50;99.90
18950;DHT22;9608;49.288;8.130;2024-01-15T01:07:00;-0.50;99.90
18950;DHT22;9608;49.288;8.130;2024-01-15T01:09:27;-0.60;99.90
18950;DHT22;9608;49.288;8.130;2024-01-15T01:11:55;-0.60;99.90
18950;DHT22;9608;49.288;8.130;2024-01-15T01:14:22;-0.60;99.90
18950;DHT22;9608;49.288;8.130;2024-01-15T01:16:49;-0.60;99.90
18950;DHT22;9608;49.288;8.130;2024-01-15T01:19:15;-0.60;99.90
18950;DHT22;9608;49.288;8.130;2024-01-15T01:21:43;-0.60;99.90
18950;DHT22;9608;49.288;8.130;2024-01-15T01:24:10;-0.60;99.90
18950;DHT22;9608;49.288;8.130;2024-01-15T01:26:37;-0.60;99.90
18950;DHT22;9608;49.288;8.130;2024-01-15T01:29:03;-0.60;99.90
18950;DHT22;9608;49.288;8.130;2024-01-15T01:31:30;-0.60;99.90
18950;DHT22;9608;49.288;8.130;2024-01-15T01:33:57;-0.60;99.90
18950;DHT22;9608;49.288;8.130;2024-01-15T01:36:23;-0.60;99.90
18950;DHT22;9608;49.288;8.130;2024-01-15T01:38:51;-0.50;99.90
18950;DHT22;9608;49.288;8.130;2024-01-15T01:41:18;-0.50;99.90
18950;DHT22;9608;49.288;8.130;2024-01-15T01:43:45;-0.50;99.90
18950;DHT22;9608;49.288;8.130;2024-01-15T01:46:11;-0.50;99.90
18950;DHT22;9608;49.288;8.130;2024-01-15T01:48:38;-0.50;99.90
18950;DHT22;9608;49.288;8.130;2024-01-15T01:51:05;-0.50;99.90
18950;DHT22;9608;49.288;8.130;2024-01-15T01:53:34;-0.50;99.90
18950;DHT22;9608;49.288;8.130;2024-01-15T01:56:05;-0.50;99.90
18950;DHT22;9608;49.288;8.130;2024-01-15T01:58:32;-0.50;99.90
18950;DHT22;9608;49.288;8.130;2024-01-15T02:00:59;-0.50;99.90
18950;DHT22;9608;49.288;8.130;2024-01-15T02:03:26;-0.50;99.90
18950;DHT22;9608;49.288;8.130;2024-01-15T02:05:53;-0.50;99.90
18950;DHT22;9608;49.288;8.130;2024-01-15T02:08:20;-0.50;99.90
18950;DHT22;9608;49.288;8.130;2024-01-15T02:10:47;-0.60;99.90
18950;DHT22;9608;49.288;8.130;2024-01-15T02:13:16;-0.60;99.90
18950;DHT22;9608;49.288;8.130;2024-01-15T02:15:43;-0.60;99.90
18950;DHT22;9608;49.288;8.130;2024-01-15T02:18:10;-0.60;99.90
18950;DHT22;9608;49.288;8.130;2024-01-15T02:20:37;-0.60;99.90
18950;DHT22;9608;49.288;8.130;2024-01-15T02:23:08;-0.70;99.90
18950;DHT22;9608;49.288;8.130;2024-01-15T02:25:35;-0.70;99.90
18950;DHT22;9608;49.288;8.130;2024-01-15T02:28:06;-0.70;99.90
18950;DHT22;9608;49.288;8.130;2024-01-15T02:30:35;-0.70;99.90
18950;DHT22;9608;49.288;8.130;2024-01-15T02:33:03;-0.70;99.90
18950;DHT22;9608;49.288;8.130;2024-01-15T02:35:30;-0.80;99.90
18950;DHT22;9608;49.288;8.130;2024-01-15T02:37:57;-0.80;99.90
18950;DHT22;9608;49.288;8.130;2024-01-15T02:40:25;-0.80;99.90
18950;DHT22;9608;49.288;8.130;2024-01-15T02:42:52;-0.90;99.90
18950;DHT22;9608;49.288;8.130;2024-01-15T02:45:19;-0.90;99.90
18950;DHT22;9608;49.288;8.130;2024-01-15T02:47:46;-0.90;99.90
18950;DHT22;9608;49.288;8.130;2024-01-15T02:50:12;-0.90;99.90
18950;DHT22;9608;49.288;8.130;2024-01-15T02:52:39;-0.90;99.90
18950;DHT22;9608;49.288;8.130;2024-01-15T02:55:06;-0.90;99.90
18950;DHT22;9608;49.288;8.130;2024-01-15T02:57:34;-0.90;99.90
18950;DHT22;9608;49.288;8.130;2024-01-15T03:00:02;-1.00;99.90
18950;DHT22;9608;49.288;8.130;2024-01-15T03:02:29;-1.00;99.90
18950;DHT22;9608;49.288;8.130;2024-01-15T03:04:57;-1.00;99.90
18950;DHT22;9608;49.288;8.130;2024-01-15T03:07:23;-1.00;99.90
18950;DHT22;9608;49.288;8.130;2024-01-15T03:09:50;-1.00;99.90
18950;DHT22;9608;49.288;8.130;2024-01-15T03:12:17;-1.00;99.90
18950;DHT22;9608;49.288;8.130;2024-01-15T03:14:45;-1.00;99.90
18950;DHT22;9608;49.288;8.130;2024-01-15T03:17:12;-0.90;99.90
18950;DHT22;9608;49.288;8.130;2024-01-15T03:19:42;-0.70;99.90
18950;DHT22;9608;49.288;8.130;2024-01-15T03:22:08;-0.60;99.90
18950;DHT22;9608;49.288;8.130;2024-01-15T03:24:35;-0.50;99.90
18950;DHT22;9608;49.288;8.130;2024-01-15T03:27:02;-0.40;99.90
18950;DHT22;9608;49.288;8.130;2024-01-15T03:29:29;-0.20;99.90
18950;DHT22;9608;49.288;8.130;2024-01-15T03:31:57;0.00;99.90
18950;DHT22;9608;49.288;8.130;2024-01-15T03:34:24;0.00;99.90
18950;DHT22;9608;49.288;8.130;2024-01-15T03:36:50;0.00;99.90
18950;DHT22;9608;49.288;8.130;2024-01-15T03:39:17;0.00;99.90
18950;DHT22;9608;49.288;8.130;2024-01-15T03:41:44;-0.20;99.90
18950;DHT22;9608;49.288;8.130;2024-01-15T03:44:10;-0.20;99.90
18950;DHT22;9608;49.288;8.130;2024-01-15T03:46:37;-0.20;99.90
18950;DHT22;9608;49.288;8.130;2024-01-15T03:49:05;-0.20;99.90
18950;DHT22;9608;49.288;8.130;2024-01-15T03:51:32;-0.20;99.90
18950;DHT22;9608;49.288;8.130;2024-01-15T03:53:59;-0.30;99.90
18950;DHT22;9608;49.288;8.130;2024-01-15T03:56:25;-0.30;99.90
18950;DHT22;9608;49.288;8.130;2024-01-15T03:58:52;-0.30;99.90
18950;DHT22;9608;49.288;8.130;2024-01-15T04:01:19;-0.40;99.90
18950;DHT22;9608;49.288;8.130;2024-01-15T04:03:45;-0.50;99.90
18950;DHT22;9608;49.288;8.130;2024-01-15T04:06:13;-0.40;99.90
18950;DHT22;9608;49.288;8.130;2024-01-15T04:08:40;-0.40;99.90
18950;DHT22;9608;49.288;8.130;2024-01-15T04:11:07;-0.40;99.90
18950;DHT22;9608;49.288;8.130;2024-01-15T04:13:33;-0.30;99.90
18950;DHT22;9608;49.288;8.130;2024-01-15T04:16:00;-0.30;99.90
18950;DHT22;9608;49.288;8.130;2024-01-15T04:18:27;-0.30;99.90
18950;DHT22;9608;49.288;8.130;2024-01-15T04:20:54;-0.20;99.90
18950;DHT22;9608;49.288;8.130;2024-01-15T04:23:22;-0.20;99.90
18950;DHT22;9608;49.288;8.130;2024-01-15T04:25:48;-0.20;99.90
18950;DHT22;9608;49.288;8.130;2024-01-15T04:28:15;-0.10;99.90
18950;DHT22;9608;49.288;8.130;2024-01-15T04:30:42;-0.10;99.90
18950;DHT22;9608;49.288;8.130;2024-01-15T04:33:09;-0.10;99.90
18950;DHT22;9608;49.288;8.130;2024-01-15T04:35:35;-0.10;99.90
18950;DHT22;9608;49.288;8.130;2024-01-15T04:38:02;-0.10;99.90
18950;DHT22;9608;49.288;8.130;2024-01-15T04:40:30;0.00;99.90
18950;DHT22;9608;49.288;8.130;2024-01-15T04:42:57;0.00;99.90
18950;DHT22;9608;49.288;8.130;2024-01-15T04:45:23;0.00;99.90
18950;DHT22;9608;49.288;8.130;2024-01-15T04:47:54;0.10;99.90
18950;DHT22;9608;49.288;8.130;2024-01-15T04:50:21;0.10;99.90
18950;DHT22;9608;49.288;8.130;2024-01-15T04:52:50;0.10;99.90
18950;DHT22;9608;49.288;8.130;2024-01-15T04:55:16;0.10;99.90
18950;DHT22;9608;49.288;8.130;2024-01-15T04:57:45;0.10;99.90
18950;DHT22;9608;49.288;8.130;2024-01-15T05:00:12;0.00;99.90
18950;DHT22;9608;49.288;8.130;2024-01-15T05:02:40;0.00;99.90
18950;DHT22;9608;49.288;8.130;2024-01-15T05:05:06;0.00;99.90
18950;DHT22;9608;49.288;8.130;2024-01-15T05:07:33;0.00;99.90
18950;DHT22;9608;49.288;8.130;2024-01-15T05:10:00;0.10;99.90
18950;DHT22;9608;49.288;8.130;2024-01-15T05:12:27;0.10;99.90
18950;DHT22;9608;49.288;8.130;2024-01-15T05:14:55;0.10;99.90
18950;DHT22;9608;49.288;8.130;2024-01-15T05:17:21;0.10;99.90
18950;DHT22;9608;49.288;8.130;2024-01-15T05:19:48;0.10;99.90
18950;DHT22;9608;49.288;8.130;2024-01-15T05:22:15;0.10;99.90
18950;DHT22;9608;49.288;8.130;2024-01-15T05:24:41;0.00;99.90
18950;DHT22;9608;49.288;8.130;2024-01-15T05:27:08;0.10;99.90
18950;DHT22;9608;49.288;8.130;2024-01-15T05:29:35;0.10;99.90
18950;DHT22;9608;49.288;8.130;2024-01-15T05:32:03;-0.10;99.90
18950;DHT22;9608;49.288;8.130;2024-01-15T05:34:30;-0.20;99.90
18950;DHT22;9608;49.288;8.130;2024-01-15T05:36:56;-0.30;99.90
18950;DHT22;9608;49.288;8.130;2024-01-15T05:39:23;-0.30;99.90
18950;DHT22;9608;49.288;8.130;2024-01-15T05:41:50;-0.30;99.90
18950;DHT22;9608;49.288;8.130;2024-01-15T05:44:16;-0.30;99.90
18950;DHT22;9608;49.288;8.130;2024-01-15T05:46:43;-0.30;99.90
18950;DHT22;9608;49.288;8.130;2024-01-15T05:49:11;-0.20;99.90
18950;DHT22;9608;49.288;8.130;2024-01-15T05:51:38;-0.20;99.90
18950;DHT22;9608;49.288;8.130;2024-01-15T05:54:04;-0.20;99.90
18950;DHT22;9608;49.288;8.130;2024-01-15T05:56:31;-0.20;99.90
18950;DHT22;9608;49.288;8.130;2024-01-15T05:58:58;-0.20;99.90
18950;DHT22;9608;49.288;8.130;2024-01-15T06:01:25;-0.10;99.90
18950;DHT22;9608;49.288;8.130;2024-01-15T06:03:52;-0.10;99.90
18950;DHT22;9608;49.288;8.130;2024-01-15T06:06:20;0.00;99.90
18950;DHT22;9608;49.288;8.130;2024-01-15T06:08:47;0.10;99.90
18950;DHT22;9608;49.288;8.130;2024-01-15T06:11:13;0.10;99.90
18950;DHT22;9608;49.288;8.130;2024-01-15T06:13:40;0.10;99.90
18950;DHT22;9608;49.288;8.130;2024-01-15T06:16:13;0.10;99.90
18950;DHT22;9608;49.288;8.130;2024-01-15T06:18:40;0.10;99.90
18950;DHT22;9608;49.288;8.130;2024-01-15T06:21:07;0.10;99.90
18950;DHT22;9608;49.288;8.130;2024-01-15T06:23:37;0.10;99.90
18950;DHT22;9608;49.288;8.130;2024-01-15T06:26:04;0.10;99.90
18950;DHT22;9608;49.288;8.130;2024-01-15T06:28:31;0.10;99.90
18950;DHT22;9608;49.288;8.130;2024-01-15T06:30:57;0.20;99.90
18950;DHT22;9608;49.288;8.130;2024-01-15T06:33:24;0.20;99.90
18950;DHT22;9608;49.288;8.130;2024-01-15T06:35:51;0.20;99.90
18950;DHT22;9608;49.288;8.130;2024-01-15T06:38:17;0.20;99.90
18950;DHT22;9608;49.288;8.130;2024-01-15T06:40:45;0.30;99.90
18950;DHT22;9608;49.288;8.130;2024-01-15T06:43:13;0.40;99.90
18950;DHT22;9608;49.288;8.130;2024-01-15T06:45:41;0.40;99.90
18950;DHT22;9608;49.288;8.130;2024-01-15T06:48:07;0.40;99.90
18950;DHT22;9608;49.288;8.130;2024-01-15T06:50:34;0.40;99.90
18950;DHT22;9608;49.288;8.130;2024-01-15T06:53:01;0.50;99.90
18950;DHT22;9608;49.288;8.130;2024-01-15T06:55:28;0.50;99.90
18950;DHT22;9608;49.288;8.130;2024-01-15T06:57:56;0.60;99.90
18950;DHT22;9608;49.288;8.130;2024-01-15T07:00:23;0.60;99.90
18950;DHT22;9608;49.288;8.130;2024-01-15T07:02:49;0.60;99.90
18950;DHT22;9608;49.288;8.130;2024-01-15T07:05:17;0.60;99.90
18950;DHT22;9608;49.288;8.130;2024-01-15T07:07:44;0.60;99.90
18950;DHT22;9608;49.288;8.130;2024-01-15T07:10:11;0.60;99.90
18950;DHT22;9608;49.288;8.130;2024-01-15T07:12:38;0.30;99.90
18950;DHT22;9608;49.288;8.130;2024-01-15T07:15:08;0.30;99.90
18950;DHT22;9608;49.288;8.130;2024-01-15T07:17:36;0.20;99.90
18950;DHT22;9608;49.288;8.130;2024-01-15T07:20:06;0.30;99.90
18950;DHT22;9608;49.288;8.130;2024-01-15T07:22:33;0.30;99.90
18950;DHT22;9608;49.288;8.130;2024-01-15T07:25:01;0.30;99.90
18950;DHT22;9608;49.288;8.130;2024-01-15T07:27:30;0.30;99.90
18950;DHT22;9608;49.288;8.130;2024-01-15T07:30:04;0.30;99.90
18950;DHT22;9608;49.288;8.130;2024-01-15T07:32:39;0.30;99.90
18950;DHT22;9608;49.288;8.130;2024-01-15T07:35:09;0.30;99.90
18950;DHT22;9608;49.288;8.130;2024-01-15T07:37:43;0.40;99.90
18950;DHT22;9608;49.288;8.130;2024-01-15T07:40:11;0.40;99.90
18950;DHT22;9608;49.288;8.130;2024-01-15T07:42:41;0.40;99.90
18950;DHT22;9608;49.288;8.130;2024-01-15T07:45:10;0.40;99.90
18950;DHT22;9608;49.288;8.130;2024-01-15T07:47:40;0.40;99.90
18950;DHT22;9608;49.288;8.130;2024-01-15T07:50:11;0.30;99.90
18950;DHT22;9608;49.288;8.130;2024-01-15T07:52:40;0.30;99.90
18950;DHT22;9608;49.288;8.130;2024-01-15T07:55:08;0.30;99.90
18950;DHT22;9608;49.288;8.130;2024-01-15T07:57:35;0.40;99.90
18950;DHT22;9608;49.288;8.130;2024-01-15T08:00:17;0.40;99.90
18950;DHT22;9608;49.288;8.130;2024-01-15T08:02:48;0.40;99.90
18950;DHT22;9608;49.288;8.130;2024-01-15T08:05:18;0.50;99.90
18950;DHT22;9608;49.288;8.130;2024-01-15T08:07:51;0.50;99.90
18950;DHT22;9608;49.288;8.130;2024-01-15T08:10:24;0.50;99.90
18950;DHT22;9608;49.288;8.130;2024-01-15T08:12:51;0.50;99.90
18950;DHT22;9608;49.288;8.130;2024-01-15T08:15:18;0.50;99.90
18950;DHT22;9608;49.288;8.130;2024-01-15T08:17:48;0.50;99.90
18950;DHT22;9608;49.288;8.130;2024-01-15T08:20:16;0.50;99.90
18950;DHT22;9608;49.288;8.130;2024-01-15T08:22:43;0.60;99.90
18950;DHT22;9608;49.288;8.130;2024-01-15T08:25:10;0.50;99.90
18950;DHT22;9608;49.288;8.130;2024-01-15T08:27:38;0.40;99.90
18950;DHT22;9608;49.288;8.130;2024-01-15T08:30:07;0.40;99.90
18950;DHT22;9608;49.288;8.130;2024-01-15T08:32:35;0.50;99.90
18950;DHT22;9608;49.288;8.130;2024-01-15T08:35:09;0.60;99.90
18950;DHT22;9608;49.288;8.130;2024-01-15T08:37:37;0.60;99.90
18950;DHT22;9608;49.288;8.130;2024-01-15T08:40:05;0.50;99.90
18950;DHT22;9608;49.288;8.130;2024-01-15T08:42:49;0.60;99.90
18950;DHT22;9608;49.288;8.130;2024-01-15T08:45:16;0.70;99.90
18950;DHT22;9608;49.288;8.130;2024-01-15T08:47:43;0.70;99.90
18950;DHT22;9608;49.288;8.130;2024-01-15T08:50:11;0.70;99.90
18950;DHT22;9608;49.288;8.130;2024-01-15T08:52:38;0.70;99.90
18950;DHT22;9608;49.288;8.130;2024-01-15T08:55:05;0.70;99.90
18950;DHT22;9608;49.288;8.130;2024-01-15T08:57:32;0.60;99.90
18950;DHT22;9608;49.288;8.130;2024-01-15T08:59:59;0.60;99.90
18950;DHT22;9608;49.288;8.130;2024-01-15T09:02:27;0.50;99.90
18950;DHT22;9608;49.288;8.130;2024-01-15T09:04:54;0.50;99.90
18950;DHT22;9608;49.288;8.130;2024-01-15T09:07:24;0.50;99.90
18950;DHT22;9608;49.288;8.130;2024-01-15T09:09:52;0.30;99.90
18950;DHT22;9608;49.288;8.130;2024-01-15T09:12:19;0.30;99.90
18950;DHT22;9608;49.288;8.130;2024-01-15T09:14:47;0.40;99.90
18950;DHT22;9608;49.288;8.130;2024-01-15T09:17:16;0.40;99.90
18950;DHT22;9608;49.288;8.130;2024-01-15T09:19:44;0.40;99.90
18950;DHT22;9608;49.288;8.130;2024-01-15T09:22:12;0.50;99.90
18950;DHT22;9608;49.288;8.130;2024-01-15T09:24:46;0.70;99.90
18950;DHT22;9608;49.288;8.130;2024-01-15T09:27:14;0.70;99.90
18950;DHT22;9608;49.288;8.130;2024-01-15T09:29:41;0.80;99.90
18950;DHT22;9608;49.288;8.130;2024-01-15T09:32:11;0.80;99.90
18950;DHT22;9608;49.288;8.130;2024-01-15T09:34:38;0.70;99.90
18950;DHT22;9608;49.288;8.130;2024-01-15T09:37:07;0.60;99.90
18950;DHT22;9608;49.288;8.130;2024-01-15T09:39:35;0.70;99.90
18950;DHT22;9608;49.288;8.130;2024-01-15T09:42:08;0.80;99.90
18950;DHT22;9608;49.288;8.130;2024-01-15T09:45:07;0.80;99.90
18950;DHT22;9608;49.288;8.130;2024-01-15T09:47:45;0.90;99.90
18950;DHT22;9608;49.288;8.130;2024-01-15T09:50:14;0.90;99.90
18950;DHT22;9608;49.288;8.130;2024-01-15T09:52:44;0.80;99.90
18950;DHT22;9608;49.288;8.130;2024-01-15T09:55:13;0.50;99.90
18950;DHT22;9608;49.288;8.130;2024-01-15T09:57:44;0.40;99.90
18950;DHT22;9608;49.288;8.130;2024-01-15T10:00:13;0.30;99.90
18950;DHT22;9608;49.288;8.130;2024-01-15T10:02:41;0.50;99.90
18950;DHT22;9608;49.288;8.130;2024-01-15T10:05:14;0.60;99.90
18950;DHT22;9608;49.288;8.130;2024-01-15T10:07:41;0.60;99.90
18950;DHT22;9608;49.288;8.130;2024-01-15T10:10:10;0.70;99.90
18950;DHT22;9608;49.288;8.130;2024-01-15T10:12:47;0.90;99.90
18950;DHT22;9608;49.288;8.130;2024-01-15T10:15:14;1.00;99.90
18950;DHT22;9608;49.288;8.130;2024-01-15T10:17:42;0.90;99.90
18950;DHT22;9608;49.288;8.130;2024-01-15T10:20:11;1.10;99.90
18950;DHT22;9608;49.288;8.130;2024-01-15T10:22:42;1.20;99.90
18950;DHT22;9608;49.288;8.130;2024-01-15T10:25:13;1.30;99.90
18950;DHT22;9608;49.288;8.130;2024-01-15T10:27:41;1.30;99.90
18950;DHT22;9608;49.288;8.130;2024-01-15T10:30:10;1.20;99.90
18950;DHT22;9608;49.288;8.130;2024-01-15T10:32:39;1.30;99.90
18950;DHT22;9608;49.288;8.130;2024-01-15T10:35:07;1.40;99.90
18950;DHT22;9608;49.288;8.130;2024-01-15T10:37:34;1.40;99.90
18950;DHT22;9608;49.288;8.130;2024-01-15T10:40:02;1.40;99.90
18950;DHT22;9608;49.288;8.130;2024-01-15T10:42:31;1.60;99.90
18950;DHT22;9608;49.288;8.130;2024-01-15T10:44:58;1.50;99.90
18950;DHT22;9608;49.288;8.130;2024-01-15T10:47:26;1.40;99.90
18950;DHT22;9608;49.288;8.130;2024-01-15T10:49:53;1.40;99.90
18950;DHT22;9608;49.288;8.130;2024-01-15T10:52:21;1.30;99.90
18950;DHT22;9608;49.288;8.130;2024-01-15T10:54:49;1.30;99.90
18950;DHT22;9608;49.288;8.130;2024-01-15T10:57:16;1.40;99.90
18950;DHT22;9608;49.288;8.130;2024-01-15T10:59:43;1.50;99.90
18950;DHT22;9608;49.288;8.130;2024-01-15T11:02:11;1.50;99.90
18950;DHT22;9608;49.288;8.130;2024-01-15T11:04:40;1.60;99.90
18950;DHT22;9608;49.288;8.130;2024-01-15T11:07:07;1.90;99.90
18950;DHT22;9608;49.288;8.130;2024-01-15T11:09:36;1.90;99.90
18950;DHT22;9608;49.288;8.130;2024-01-15T11:12:09;1.90;99.90
18950;DHT22;9608;49.288;8.130;2024-01-15T11:14:39;1.90;99.90
18950;DHT22;9608;49.288;8.130;2024-01-15T11:17:09;2.00;99.90
18950;DHT22;9608;49.288;8.130;2024-01-15T11:19:38;1.90;99.90
18950;DHT22;9608;49.288;8.130;2024-01-15T11:22:08;1.90;99.90
18950;DHT22;9608;49.288;8.130;2024-01-15T11:24:36;1.80;99.90
18950;DHT22;9608;49.288;8.130;2024-01-15T11:27:04;1.80;99.90
18950;DHT22;9608;49.288;8.130;2024-01-15T11:29:33;1.90;99.90
18950;DHT22;9608;49.288;8.130;2024-01-15T11:34:56;1.90;99.90
18950;DHT22;9608;49.288;8.130;2024-01-15T11:40:13;2.00;99.90
18950;DHT22;9608;49.288;8.130;2024-01-15T11:42:44;2.10;99.90
18950;DHT22;9608;49.288;8.130;2024-01-15T11:45:11;2.10;99.90
18950;DHT22;9608;49.288;8.130;2024-01-15T11:50:35;2.10;99.90
18950;DHT22;9608;49.288;8.130;2024-01-15T11:53:04;2.10;99.90
18950;DHT22;9608;49.288;8.130;2024-01-15T11:55:35;2.20;99.90
18950;DHT22;9608;49.288;8.130;2024-01-15T11:58:02;2.20;99.90
18950;DHT22;9608;49.288;8.130;2024-01-15T12:00:33;2.20;99.90
18950;DHT22;9608;49.288;8.130;2024-01-15T12:03:00;2.20;99.90
18950;DHT22;9608;49.288;8.130;2024-01-15T12:05:27;2.30;99.90
18950;DHT22;9608;49.288;8.130;2024-01-15T12:07:54;2.20;99.90
18950;DHT22;9608;49.288;8.130;2024-01-15T12:10:23;2.20;99.90
18950;DHT22;9608;49.288;8.130;2024-01-15T12:12:57;2.20;99.90
18950;DHT22;9608;49.288;8.130;2024-01-15T12:15:26;2.30;99.90
18950;DHT22;9608;49.288;8.130;2024-01-15T12:17:54;2.50;99.90
18950;DHT22;9608;49.288;8.130;2024-01-15T12:20:22;2.50;99.90
18950;DHT22;9608;49.288;8.130;2024-01-15T12:22:49;2.60;99.90
18950;DHT22;9608;49.288;8.130;2024-01-15T12:25:16;2.60;99.90
18950;DHT22;9608;49.288;8.130;2024-01-15T12:27:44;2.60;99.90
18950;DHT22;9608;49.288;8.130;2024-01-15T12:30:12;2.70;99.90
18950;DHT22;9608;49.288;8.130;2024-01-15T12:32:40;2.70;99.90
18950;DHT22;9608;49.288;8.130;2024-01-15T12:35:07;2.60;99.90
18950;DHT22;9608;49.288;8.130;2024-01-15T12:37:35;2.60;99.90
18950;DHT22;9608;49.288;8.130;2024-01-15T12:40:02;2.50;99.90
18950;DHT22;9608;49.288;8.130;2024-01-15T12:42:30;2.40;99.90
18950;DHT22;9608;49.288;8.130;2024-01-15T12:44:58;2.30;99.90
18950;DHT22;9608;49.288;8.130;2024-01-15T12:47:25;2.20;99.90
18950;DHT22;9608;49.288;8.130;2024-01-15T12:49:52;2.20;99.90
18950;DHT22;9608;49.288;8.130;2024-01-15T12:52:20;2.20;99.90
18950;DHT22;9608;49.288;8.130;2024-01-15T12:54:47;2.20;99.90
18950;DHT22;9608;49.288;8.130;2024-01-15T12:57:14;2.30;99.90
18950;DHT22;9608;49.288;8.130;2024-01-15T12:59:41;2.30;99.90
18950;DHT22;9608;49.288;8.130;2024-01-15T13:02:09;2.40;99.90
18950;DHT22;9608;49.288;8.130;2024-01-15T13:04:37;2.30;99.90
18950;DHT22;9608;49.288;8.130;2024-01-15T13:07:04;2.30;99.90
18950;DHT22;9608;49.288;8.130;2024-01-15T13:09:31;2.30;99.90
18950;DHT22;9608;49.288;8.130;2024-01-15T13:11:58;2.30;99.90
18950;DHT22;9608;49.288;8.130;2024-01-15T13:14:25;2.30;99.90
18950;DHT22;9608;49.288;8.130;2024-01-15T13:16:52;2.30;99.90
18950;DHT22;9608;49.288;8.130;2024-01-15T13:19:21;2.20;99.90
18950;DHT22;9608;49.288;8.130;2024-01-15T13:21:48;2.30;99.90
18950;DHT22;9608;49.288;8.130;2024-01-15T13:24:15;2.40;99.90
18950;DHT22;9608;49.288;8.130;2024-01-15T13:26:42;2.50;99.90
18950;DHT22;9608;49.288;8.130;2024-01-15T13:29:09;2.50;99.90
18950;DHT22;9608;49.288;8.130;2024-01-15T13:31:36;2.50;99.90
18950;DHT22;9608;49.288;8.130;2024-01-15T13:34:04;2.50;99.90
18950;DHT22;9608;49.288;8.130;2024-01-15T13:36:33;2.60;99.90
18950;DHT22;9608;49.288;8.130;2024-01-15T13:39:00;2.70;99.90
18950;DHT22;9608;49.288;8.130;2024-01-15T13:41:27;2.70;99.90
18950;DHT22;9608;49.288;8.130;2024-01-15T13:43:55;2.70;99.90
18950;DHT22;9608;49.288;8.130;2024-01-15T13:46:24;2.70;99.90
18950;DHT22;9608;49.288;8.130;2024-01-15T13:48:52;2.70;99.90
18950;DHT22;9608;49.288;8.130;2024-01-15T13:51:18;2.70;99.90
18950;DHT22;9608;49.288;8.130;2024-01-15T13:53:46;2.40;99.90
18950;DHT22;9608;49.288;8.130;2024-01-15T13:56:14;2.50;99.90
18950;DHT22;9608;49.288;8.130;2024-01-15T13:58:41;2.40;99.90
18950;DHT22;9608;49.288;8.130;2024-01-15T14:01:08;2.40;99.90
18950;DHT22;9608;49.288;8.130;2024-01-15T14:03:37;2.40;99.90
18950;DHT22;9608;49.288;8.130;2024-01-15T14:06:04;2.40;99.90
18950;DHT22;9608;49.288;8.130;2024-01-15T14:08:34;2.50;99.90
18950;DHT22;9608;49.288;8.130;2024-01-15T14:11:03;2.50;99.90
18950;DHT22;9608;49.288;8.130;2024-01-15T14:13:31;2.50;99.90
18950;DHT22;9608;49.288;8.130;2024-01-15T14:15:58;2.50;99.90
18950;DHT22;9608;49.288;8.130;2024-01-15T14:18:25;2.50;99.90
18950;DHT22;9608;49.288;8.130;2024-01-15T14:20:52;2.40;99.90
18950;DHT22;9608;49.288;8.130;2024-01-15T14:23:19;2.40;99.90
18950;DHT22;9608;49.288;8.130;2024-01-15T14:25:46;2.40;99.90
18950;DHT22;9608;49.288;8.130;2024-01-15T14:28:14;2.40;99.90
18950;DHT22;9608;49.288;8.130;2024-01-15T14:30:41;2.30;99.90
18950;DHT22;9608;49.288;8.130;2024-01-15T14:33:08;2.20;99.90
18950;DHT22;9608;49.288;8.130;2024-01-15T14:35:35;2.10;99.90
18950;DHT22;9608;49.288;8.130;2024-01-15T14:38:01;2.10;99.90
18950;DHT22;9608;49.288;8.130;2024-01-15T14:40:28;2.10;99.90
18950;DHT22;9608;49.288;8.130;2024-01-15T14:42:55;2.10;99.90
18950;DHT22;9608;49.288;8.130;2024-01-15T14:45:23;2.00;99.90
18950;DHT22;9608;49.288;8.130;2024-01-15T14:47:52;1.90;99.90
18950;DHT22;9608;49.288;8.130;2024-01-15T14:50:19;1.90;99.90
18950;DHT22;9608;49.288;8.130;2024-01-15T14:52:46;1.80;99.90
18950;DHT22;9608;49.288;8.130;2024-01-15T14:55:13;1.80;99.90
18950;DHT22;9608;49.288;8.130;2024-01-15T14:57:39;1.70;99.90
18950;DHT22;9608;49.288;8.130;2024-01-15T15:00:07;1.60;99.90
18950;DHT22;9608;49.288;8.130;2024-01-15T15:02:36;1.60;99.90
18950;DHT22;9608;49.288;8.130;2024-01-15T15:05:05;1.50;99.90
18950;DHT22;9608;49.288;8.130;2024-01-15T15:07:32;1.50;99.90
18950;DHT22;9608;49.288;8.130;2024-01-15T15:09:59;1.50;99.90
18950;DHT22;9608;49.288;8.130;2024-01-15T15:12:26;1.40;99.90
18950;DHT22;9608;49.288;8.130;2024-01-15T15:14:53;1.40;99.90
18950;DHT22;9608;49.288;8.130;2024-01-15T15:17:21;1.40;99.90
18950;DHT22;9608;49.288;8.130;2024-01-15T15:19:49;1.40;99.90
18950;DHT22;9608;49.288;8.130;2024-01-15T15:22:18;1.40;99.90
18950;DHT22;9608;49.288;8.130;2024-01-15T15:24:45;1.40;99.90
18950;DHT22;9608;49.288;8.130;2024-01-15T15:27:12;1.30;99.90
18950;DHT22;9608;49.288;8.130;2024-01-15T15:29:39;1.30;99.90
18950;DHT22;9608;49.288;8.130;2024-01-15T15:32:06;1.40;99.90
18950;DHT22;9608;49.288;8.130;2024-01-15T15:34:32;1.30;99.90
18950;DHT22;9608;49.288;8.130;2024-01-15T15:37:00;1.30;99.90
18950;DHT22;9608;49.288;8.130;2024-01-15T15:39:27;1.20;99.90
18950;DHT22;9608;49.288;8.130;2024-01-15T15:41:56;1.20;99.90
18950;DHT22;9608;49.288;8.130;2024-01-15T15:44:23;1.10;99.90
18950;DHT22;9608;49.288;8.130;2024-01-15T15:46:50;1.10;99.90
18950;DHT22;9608;49.288;8.130;2024-01-15T15:49:17;1.10;99.90
18950;DHT22;9608;49.288;8.130;2024-01-15T15:51:44;1.00;99.90
18950;DHT22;9608;49.288;8.130;2024-01-15T15:54:12;1.00;99.90
18950;DHT22;9608;49.288;8.130;2024-01-15T15:56:39;1.00;99.90
18950;DHT22;9608;49.288;8.130;2024-01-15T15:59:08;0.90;99.90
18950;DHT22;9608;49.288;8.130;2024-01-15T16:01:35;0.80;99.90
18950;DHT22;9608;49.288;8.130;2024-01-15T16:04:02;1.20;99.90
18950;DHT22;9608;49.288;8.130;2024-01-15T16:06:30;1.40;99.90
18950;DHT22;9608;49.288;8.130;2024-01-15T16:08:57;1.50;99.90